Time;durP1;ratioP1;P1;durP2;ratioP2;P2;SDS_P1;SDS_P2;PMS_P1;PMS_P2;Temp;Humidity;BMP_temperature;BMP_pressure;BME280_temperature;BME280_humidity;BME280_pressure;Samples;Min_cycle;Max_cycle;Signal;HPM_P1;HPM_P2
2021/08/25 00:00:48;;;;;;;10.20;5.70;;;;;;;10.12;79.71;101091.92;93500;1202;97884;-71
2021/08/25 00:02:55;;;;;;;10.40;5.90;;;;;;;10.10;79.63;101092.63;93486;1202;88255;-68
2021/08/25 00:05:03;;;;;;;9.10;5.90;;;;;;;10.07;79.73;101094.02;93475;1202;94691;-68
2021/08/25 00:07:12;;;;;;;10.80;5.70;;;;;;;10.04;79.83;101093.10;93488;1202;79406;-70
2021/08/25 00:09:19;;;;;;;10.70;6.10;;;;;;;10.03;79.79;101090.80;93497;1202;80683;-71
2021/08/25 00:11:27;;;;;;;9.60;5.80;;;;;;;9.98;79.79;101090.91;93489;1202;98287;-69
2021/08/25 00:13:34;;;;;;;10.40;6.00;;;;;;;9.91;79.85;101092.23;93477;1202;86972;-71
2021/08/25 00:15:45;;;;;;;10.50;6.50;;;;;;;9.89;79.76;101088.60;93322;1203;93547;-71
2021/08/25 00:17:52;;;;;;;9.50;5.90;;;;;;;9.86;79.99;101086.69;93487;1202;78191;-68
2021/08/25 00:20:00;;;;;;;8.60;5.40;;;;;;;9.82;80.08;101084.77;93488;1203;81125;-68
2021/08/25 00:22:08;;;;;;;11.30;6.20;;;;;;;9.79;80.04;101083.82;93488;1202;97647;-66
2021/08/25 00:24:15;;;;;;;11.90;6.00;;;;;;;9.76;79.83;101079.57;93465;1202;87017;-66
2021/08/25 00:26:26;;;;;;;11.70;6.00;;;;;;;9.69;79.84;101078.31;93463;1202;93909;-68
2021/08/25 00:28:34;;;;;;;9.40;5.70;;;;;;;9.63;80.17;101073.27;93490;1202;79800;-68
2021/08/25 00:30:42;;;;;;;11.40;5.80;;;;;;;9.65;80.28;101071.02;93503;1202;81889;-68
2021/08/25 00:32:50;;;;;;;11.10;5.50;;;;;;;9.64;80.25;101067.30;93481;1202;97692;-70
2021/08/25 00:34:57;;;;;;;9.50;4.90;;;;;;;9.65;80.19;101069.19;93480;1202;85698;-70
2021/08/25 00:37:05;;;;;;;10.30;5.50;;;;;;;9.59;80.10;101065.51;93464;1202;94193;-67
2021/08/25 00:39:16;;;;;;;10.80;6.20;;;;;;;9.54;80.19;101066.50;93493;1202;81864;-67
2021/08/25 00:41:23;;;;;;;9.10;5.60;;;;;;;9.54;80.22;101063.96;93543;1202;81480;-71
2021/08/25 00:43:31;;;;;;;11.00;6.90;;;;;;;9.52;80.37;101059.11;93498;1202;98417;-70
2021/08/25 00:45:42;;;;;;;13.30;6.70;;;;;;;9.51;80.44;101059.81;93501;1196;86648;-70
2021/08/25 00:47:53;;;;;;;9.50;5.50;;;;;;;9.48;80.49;101056.27;93493;1202;94218;-71
2021/08/25 00:50:00;;;;;;;10.30;5.70;;;;;;;9.48;80.35;101056.88;93472;1202;80730;-70
2021/08/25 00:52:09;;;;;;;9.40;5.10;;;;;;;9.44;80.42;101058.58;93485;1202;81764;-72
2021/08/25 00:54:19;;;;;;;9.60;6.00;;;;;;;9.42;80.54;101055.35;93504;1202;98007;-71
2021/08/25 00:56:28;;;;;;;9.90;5.80;;;;;;;9.42;80.52;101055.55;93507;1202;88519;-71
2021/08/25 00:58:37;;;;;;;9.40;5.80;;;;;;;9.40;80.53;101057.94;93504;1202;94643;-71
2021/08/25 01:01:03;;;;;;;13.30;5.70;;;;;;;9.35;80.43;101059.20;93489;1202;80188;-70
2021/08/25 01:03:26;;;;;;;9.40;5.40;;;;;;;9.27;80.34;101057.77;93486;1202;81487;-68
2021/08/25 01:05:37;;;;;;;9.50;5.10;;;;;;;9.23;80.41;101056.25;93478;1202;97938;-68
2021/08/25 01:07:49;;;;;;;10.50;5.60;;;;;;;9.17;80.41;101050.73;93545;1202;87361;-70
2021/08/25 01:09:57;;;;;;;9.70;5.00;;;;;;;9.18;80.44;101052.12;93480;1202;94493;-69
2021/08/25 01:12:05;;;;;;;8.00;5.00;;;;;;;9.10;80.35;101055.33;93480;1202;79677;-68
2021/08/25 01:14:12;;;;;;;8.80;5.40;;;;;;;9.06;80.35;101056.41;93529;1202;80871;-68
2021/08/25 01:16:21;;;;;;;10.60;5.10;;;;;;;9.05;80.20;101057.52;93521;1202;97756;-68
2021/08/25 01:18:29;;;;;;;13.20;5.70;;;;;;;9.04;80.50;101061.11;93314;1203;87968;-68
2021/08/25 01:20:42;;;;;;;11.20;5.40;;;;;;;9.03;80.42;101058.69;93344;1203;94444;-68
2021/08/25 01:22:50;;;;;;;9.20;5.30;;;;;;;9.03;80.34;101058.04;93330;1203;78421;-67
2021/08/25 01:24:59;;;;;;;10.60;5.30;;;;;;;8.99;80.39;101061.73;93321;1203;80899;-68
2021/08/25 01:27:11;;;;;;;10.30;5.10;;;;;;;8.92;80.48;101059.73;93362;1203;98123;-70
2021/08/25 01:29:30;;;;;;;10.20;5.60;;;;;;;8.89;80.63;101060.77;93367;1203;86653;-71
2021/08/25 01:31:38;;;;;;;10.60;5.90;;;;;;;8.90;80.67;101058.67;93328;1203;94269;-71
2021/08/25 01:33:45;;;;;;;11.00;5.70;;;;;;;8.87;80.76;101055.22;93341;1197;79198;-70
2021/08/25 01:35:53;;;;;;;8.90;5.00;;;;;;;8.80;80.90;101056.67;93359;1204;81556;-70
2021/08/25 01:38:02;;;;;;;9.20;5.80;;;;;;;8.80;80.84;101052.23;93354;1204;98309;-70
2021/08/25 01:40:15;;;;;;;11.80;5.40;;;;;;;8.80;80.83;101047.38;93361;1203;86501;-70
2021/08/25 01:42:22;;;;;;;;;;;;;;;8.76;80.74;101047.36;93352;1203;93565;-68
2021/08/25 01:44:29;;;;;;;12.00;5.20;;;;;;;8.73;80.82;101048.69;93333;1204;79954;-68
2021/08/25 01:46:39;;;;;;;10.40;5.50;;;;;;;8.70;80.92;101044.81;93354;1204;80529;-70
2021/08/25 01:48:47;;;;;;;8.40;4.80;;;;;;;8.68;80.90;101042.14;93337;1204;97711;-71
2021/08/25 01:50:54;;;;;;;10.50;5.20;;;;;;;8.68;80.81;101042.17;93334;1203;88264;-70
2021/08/25 01:53:02;;;;;;;8.20;4.80;;;;;;;8.66;80.76;101040.88;93331;1203;92587;-70
2021/08/25 01:55:10;;;;;;;11.20;5.50;;;;;;;8.63;80.66;101038.38;93336;1204;80200;-70
2021/08/25 01:57:17;;;;;;;9.00;5.30;;;;;;;8.59;80.66;101039.16;93374;1203;81686;-71
2021/08/25 01:59:25;;;;;;;8.70;5.30;;;;;;;8.54;80.72;101039.67;93340;1203;97995;-71
2021/08/25 02:01:35;;;;;;;9.40;5.20;;;;;;;8.48;80.93;101041.42;93335;1203;88062;-71
2021/08/25 02:03:43;;;;;;;8.10;5.30;;;;;;;8.45;80.80;101036.77;93329;1204;94041;-71
2021/08/25 02:05:50;;;;;;;11.40;5.70;;;;;;;8.48;80.88;101033.11;93356;1203;79509;-70
2021/08/25 02:07:58;;;;;;;9.00;4.90;;;;;;;8.51;80.85;101031.08;93355;1203;80994;-70
2021/08/25 02:10:08;;;;;;;9.30;5.40;;;;;;;8.48;80.96;101030.70;93341;1203;96601;-71
2021/08/25 02:12:15;;;;;;;10.10;4.70;;;;;;;8.43;80.91;101024.13;93350;1198;86907;-70
2021/08/25 02:14:23;;;;;;;9.50;5.30;;;;;;;8.38;80.99;101024.41;93317;1204;93113;-70
2021/08/25 02:16:34;;;;;;;8.90;5.10;;;;;;;8.37;81.10;101020.67;93363;1198;79970;-71
2021/08/25 02:18:41;;;;;;;11.00;5.20;;;;;;;8.36;81.04;101018.67;93521;1202;80738;-71
2021/08/25 02:20:49;;;;;;;9.00;5.00;;;;;;;8.36;81.26;101019.70;93520;1202;97631;-70
2021/08/25 02:22:56;;;;;;;9.60;5.20;;;;;;;8.39;81.09;101019.37;93474;1202;86706;-68
2021/08/25 02:25:08;;;;;;;8.20;4.40;;;;;;;8.34;81.27;101018.64;93450;1202;93959;-67
2021/08/25 02:27:16;;;;;;;9.50;5.50;;;;;;;8.34;81.20;101015.10;93493;1202;81541;-68
2021/08/25 02:29:24;;;;;;;9.10;5.40;;;;;;;8.35;81.08;101013.55;93519;1202;79609;-69
2021/08/25 02:31:31;;;;;;;9.80;5.30;;;;;;;8.34;81.02;101012.27;93486;1202;97476;-68
2021/08/25 02:33:40;;;;;;;12.40;5.10;;;;;;;8.28;81.38;101009.92;93486;1202;88129;-68
2021/08/25 02:35:47;;;;;;;7.50;4.80;;;;;;;8.28;81.39;101005.45;93479;1202;94242;-66
2021/08/25 02:37:55;;;;;;;9.90;5.10;;;;;;;8.27;81.27;101000.39;93503;1202;81019;-69
2021/08/25 02:40:03;;;;;;;10.70;5.30;;;;;;;8.28;81.22;101001.71;93378;1204;80702;-71
2021/08/25 02:42:12;;;;;;;8.90;5.40;;;;;;;8.28;81.04;101001.74;93514;1202;98100;-68
2021/08/25 02:44:19;;;;;;;10.10;5.40;;;;;;;8.26;81.04;101001.69;93492;1202;87869;-68
2021/08/25 02:46:27;;;;;;;9.80;5.70;;;;;;;8.25;81.27;101001.13;93476;1202;93020;-68
2021/08/25 02:48:35;;;;;;;12.80;6.00;;;;;;;8.29;81.56;101002.89;93486;1202;80902;-69
2021/08/25 02:50:43;;;;;;;10.10;6.20;;;;;;;8.30;81.50;100996.67;93516;1202;82714;-68
2021/08/25 02:52:53;;;;;;;10.80;5.90;;;;;;;8.22;81.47;100995.33;93487;1202;97758;-68
2021/08/25 02:55:00;;;;;;;10.00;6.20;;;;;;;8.20;81.64;100996.95;93485;1202;86276;-67
2021/08/25 02:57:08;;;;;;;9.50;5.60;;;;;;;8.22;81.51;100996.06;93513;1202;94169;-71
2021/08/25 02:59:16;;;;;;;11.00;5.60;;;;;;;8.22;81.41;100995.31;93490;1202;81339;-70
2021/08/25 03:01:23;;;;;;;10.00;5.30;;;;;;;8.21;81.40;100995.08;93421;1203;81850;-71
2021/08/25 03:03:31;;;;;;;10.60;5.80;;;;;;;8.17;81.37;100990.79;93488;1202;97146;-70
2021/08/25 03:05:38;;;;;;;9.80;5.90;;;;;;;8.17;81.24;100988.16;93492;1202;87345;-69
2021/08/25 03:07:46;;;;;;;11.40;6.60;;;;;;;8.16;81.15;100989.30;93509;1202;94338;-69
2021/08/25 03:09:54;;;;;;;9.90;5.40;;;;;;;8.06;81.35;100988.90;93479;1202;78362;-70
2021/08/25 03:12:01;;;;;;;10.20;5.40;;;;;;;8.07;81.51;100987.16;93436;1203;81140;-70
2021/08/25 03:14:10;;;;;;;9.70;5.70;;;;;;;8.06;81.49;100983.95;93437;1202;96488;-70
2021/08/25 03:16:17;;;;;;;12.00;5.70;;;;;;;8.04;81.46;100977.14;93416;1205;87486;-71
2021/08/25 03:18:25;;;;;;;10.20;6.00;;;;;;;8.00;81.50;100975.05;93485;1197;94534;-70
2021/08/25 03:20:33;;;;;;;9.30;6.00;;;;;;;8.02;81.40;100978.21;93373;1203;79927;-69
2021/08/25 03:22:41;;;;;;;10.50;5.00;;;;;;;7.97;81.57;100977.74;93401;1204;80470;-68
2021/08/25 03:24:49;;;;;;;11.60;5.60;;;;;;;7.97;81.58;100977.38;93512;1202;97008;-68
2021/08/25 03:26:59;;;;;;;10.00;5.70;;;;;;;7.93;81.63;100978.80;93485;1202;87775;-68
2021/08/25 03:29:07;;;;;;;12.30;6.30;;;;;;;7.94;81.62;100979.41;93476;1202;92871;-67
2021/08/25 03:31:15;;;;;;;9.00;5.30;;;;;;;7.94;81.80;100980.38;93479;1202;78775;-70
2021/08/25 03:33:23;;;;;;;12.70;5.50;;;;;;;8.00;81.88;100978.58;93521;1202;81727;-70
2021/08/25 03:35:34;;;;;;;10.80;6.10;;;;;;;8.05;81.76;100979.74;93507;1202;97178;-70
2021/08/25 03:37:41;;;;;;;10.40;6.00;;;;;;;7.99;81.85;100976.61;93509;1202;87072;-69
2021/08/25 03:39:49;;;;;;;9.20;5.20;;;;;;;8.00;81.86;100974.73;93483;1202;95140;-68
2021/08/25 03:41:56;;;;;;;11.40;5.90;;;;;;;8.01;81.80;100974.88;93488;1202;81542;-70
2021/08/25 03:44:05;;;;;;;12.00;7.10;;;;;;;8.08;81.72;100973.45;93494;1202;82777;-71
2021/08/25 03:46:13;;;;;;;9.30;6.10;;;;;;;8.13;81.76;100976.71;93501;1204;99203;-70
2021/08/25 03:48:21;;;;;;;9.60;5.70;;;;;;;8.15;81.85;100979.77;93479;1202;87659;-70
2021/08/25 03:50:31;;;;;;;9.10;5.10;;;;;;;8.19;81.84;100976.77;93346;1203;93145;-70
2021/08/25 03:52:39;;;;;;;10.50;5.40;;;;;;;8.26;81.94;100976.05;93474;1203;81307;-68
2021/08/25 03:54:46;;;;;;;8.80;5.40;;;;;;;8.30;81.94;100973.26;93504;1202;81756;-69
2021/08/25 03:56:54;;;;;;;10.00;5.60;;;;;;;8.36;82.07;100974.47;93478;1203;97716;-70
2021/08/25 03:59:01;;;;;;;11.40;5.90;;;;;;;8.41;82.11;100972.33;93495;1202;88478;-71
2021/08/25 04:01:09;;;;;;;10.60;5.90;;;;;;;8.45;81.96;100971.21;93460;1202;93704;-71
2021/08/25 04:03:16;;;;;;;10.20;5.30;;;;;;;8.46;81.91;100971.45;93489;1202;80618;-70
2021/08/25 04:05:24;;;;;;;12.40;6.20;;;;;;;8.47;81.98;100967.59;93481;1202;80858;-70
2021/08/25 04:07:32;;;;;;;11.80;6.30;;;;;;;8.41;82.11;100968.20;93489;1203;97738;-68
2021/08/25 04:09:39;;;;;;;9.60;5.80;;;;;;;8.42;82.01;100970.33;93477;1203;88239;-68
2021/08/25 04:11:47;;;;;;;9.90;5.80;;;;;;;8.36;82.03;100970.00;93489;1204;94534;-68
2021/08/25 04:13:54;;;;;;;9.00;5.90;;;;;;;8.32;82.09;100966.65;93476;1204;80019;-68
2021/08/25 04:16:02;;;;;;;9.80;6.10;;;;;;;8.32;82.14;100970.95;93472;1204;80366;-67
2021/08/25 04:18:10;;;;;;;11.30;6.40;;;;;;;8.34;82.16;100972.10;93493;1202;97512;-67
2021/08/25 04:20:18;;;;;;;11.00;5.70;;;;;;;8.40;81.78;100973.14;93497;1200;88183;-68
2021/08/25 04:22:28;;;;;;;11.30;6.00;;;;;;;8.40;81.90;100972.60;93516;1203;94256;-68
2021/08/25 04:24:36;;;;;;;9.70;6.00;;;;;;;8.36;81.91;100968.54;93473;1202;79136;-68
2021/08/25 04:26:44;;;;;;;10.90;6.20;;;;;;;8.36;82.00;100968.08;93496;1203;80912;-70
2021/08/25 04:28:51;;;;;;;12.40;6.10;;;;;;;8.43;82.09;100966.79;93494;1205;97921;-70
2021/08/25 04:31:03;;;;;;;8.90;5.20;;;;;;;8.49;82.10;100970.39;93483;1202;86574;-70
2021/08/25 04:33:13;;;;;;;8.90;6.10;;;;;;;8.53;82.09;100970.84;93474;1202;94084;-70
2021/08/25 04:35:21;;;;;;;11.50;6.30;;;;;;;8.65;82.03;100964.75;93494;1200;78740;-71
2021/08/25 04:37:28;;;;;;;11.80;6.70;;;;;;;8.74;81.98;100964.29;93499;1204;81750;-66
2021/08/25 04:39:36;;;;;;;11.80;6.40;;;;;;;8.85;81.91;100965.42;93476;1202;98870;-67
2021/08/25 04:41:44;;;;;;;13.40;6.10;;;;;;;8.99;81.91;100962.39;93489;1202;88226;-68
2021/08/25 04:43:51;;;;;;;13.80;6.80;;;;;;;9.13;82.03;100966.02;93478;1203;94119;-68
2021/08/25 04:46:02;;;;;;;10.50;6.50;;;;;;;9.22;82.07;100958.86;93437;1206;77887;-68
2021/08/25 04:48:13;;;;;;;10.70;5.80;;;;;;;9.42;81.97;100959.55;93498;1202;80668;-70
2021/08/25 04:50:21;;;;;;;10.70;6.40;;;;;;;9.48;82.04;100960.52;93489;1202;97766;-71
2021/08/25 04:52:32;;;;;;;14.50;6.30;;;;;;;9.54;81.99;100960.44;93526;1202;88917;-67
2021/08/25 04:54:40;;;;;;;14.40;6.40;;;;;;;9.59;81.79;100959.89;93479;1203;95350;-68
2021/08/25 04:56:48;;;;;;;11.80;6.70;;;;;;;9.63;81.80;100962.75;93490;1198;81239;-68
2021/08/25 04:58:56;;;;;;;10.80;6.20;;;;;;;9.68;81.92;100959.71;93516;1202;83087;-67
2021/08/25 05:01:12;;;;;;;9.10;6.00;;;;;;;9.77;81.83;100957.05;93491;1202;97227;-68
2021/08/25 05:03:20;;;;;;;11.00;6.50;;;;;;;9.79;81.76;100956.80;93493;1203;87525;-68
2021/08/25 05:05:28;;;;;;;11.80;6.20;;;;;;;9.75;81.76;100956.27;93477;1202;93602;-68
2021/08/25 05:07:36;;;;;;;11.10;6.00;;;;;;;9.77;81.88;100955.63;93509;1202;81366;-70
2021/08/25 05:09:47;;;;;;;10.90;5.70;;;;;;;9.87;81.70;100958.77;93478;1203;82168;-71
2021/08/25 05:11:55;;;;;;;12.10;6.80;;;;;;;10.01;81.75;100958.86;93457;1202;97736;-68
2021/08/25 05:14:02;;;;;;;9.40;6.20;;;;;;;10.06;81.93;100959.48;93499;1203;88274;-66
2021/08/25 05:16:14;;;;;;;13.40;6.50;;;;;;;10.10;81.82;100957.65;93486;1195;92285;-69
2021/08/25 05:18:22;;;;;;;11.50;6.10;;;;;;;10.15;81.87;100955.03;93462;1205;80683;-70
2021/08/25 05:20:30;;;;;;;11.30;6.40;;;;;;;10.27;81.83;100951.29;93488;1203;82114;-70
2021/08/25 05:22:38;;;;;;;10.70;5.90;;;;;;;10.37;81.67;100954.38;93417;1203;96630;-69
2021/08/25 05:24:45;;;;;;;12.30;6.60;;;;;;;10.19;81.99;100945.14;93507;1203;86958;-70
2021/08/25 05:26:53;;;;;;;9.30;5.70;;;;;;;10.29;82.05;100946.94;93490;1202;93595;-68
2021/08/25 05:29:01;;;;;;;12.40;7.10;;;;;;;10.22;82.08;100941.00;93480;1202;78782;-67
2021/08/25 05:31:08;;;;;;;11.90;7.00;;;;;;;10.30;82.10;100941.43;93483;1202;80975;-67
2021/08/25 05:33:16;;;;;;;9.70;6.50;;;;;;;10.44;82.08;100934.68;93440;1203;97314;-68
2021/08/25 05:35:25;;;;;;;12.50;7.80;;;;;;;10.49;81.98;100927.10;93477;1200;88234;-68
2021/08/25 05:37:32;;;;;;;13.20;7.50;;;;;;;10.46;82.17;100929.27;93468;1202;94139;-67
2021/08/25 05:39:40;;;;;;;12.40;6.90;;;;;;;10.65;81.89;100927.77;93480;1202;78882;-68
2021/08/25 05:41:47;;;;;;;11.00;7.40;;;;;;;10.77;81.88;100930.88;93481;1202;81298;-70
2021/08/25 05:43:55;;;;;;;11.50;7.60;;;;;;;10.93;81.76;100925.90;93491;1202;97129;-70
2021/08/25 05:46:03;;;;;;;12.00;6.90;;;;;;;11.01;81.72;100920.27;93480;1202;86932;-69
2021/08/25 05:48:11;;;;;;;10.10;7.50;;;;;;;11.09;81.73;100920.56;93479;1202;94690;-71
2021/08/25 05:50:19;;;;;;;11.80;7.30;;;;;;;11.24;81.51;100917.72;93488;1202;78200;-71
2021/08/25 05:52:26;;;;;;;13.30;7.30;;;;;;;11.17;81.65;100917.77;93496;1202;80440;-68
2021/08/25 05:54:34;;;;;;;11.30;6.80;;;;;;;11.15;81.70;100921.99;93475;1202;97221;-69
2021/08/25 05:56:41;;;;;;;11.60;7.40;;;;;;;11.10;81.69;100919.00;93457;1202;88093;-69
2021/08/25 05:58:52;;;;;;;10.80;6.50;;;;;;;11.03;81.80;100920.70;93458;1202;94515;-70
2021/08/25 06:01:03;;;;;;;12.40;7.30;;;;;;;11.00;81.87;100925.67;93498;1205;79161;-71
2021/08/25 06:03:11;;;;;;;12.20;7.20;;;;;;;11.04;81.86;100926.88;93484;1202;80150;-68
2021/08/25 06:05:18;;;;;;;9.70;6.10;;;;;;;11.37;81.41;100921.55;93466;1202;97943;-68
2021/08/25 06:07:26;;;;;;;10.60;6.40;;;;;;;11.39;81.52;100918.80;93488;1202;87995;-70
2021/08/25 06:09:33;;;;;;;11.80;6.60;;;;;;;11.56;81.49;100919.48;93464;1202;96031;-70
2021/08/25 06:11:44;;;;;;;11.80;7.30;;;;;;;11.66;81.38;100921.36;93488;1202;79749;-71
2021/08/25 06:13:51;;;;;;;12.40;6.80;;;;;;;11.45;81.74;100919.66;93505;1202;80128;-71
2021/08/25 06:15:59;;;;;;;15.40;7.40;;;;;;;11.38;81.86;100915.70;93491;1202;97993;-70
2021/08/25 06:18:07;;;;;;;12.80;7.50;;;;;;;11.39;81.85;100911.15;93479;1202;87504;-73
2021/08/25 06:20:16;;;;;;;11.40;7.20;;;;;;;11.63;81.65;100918.96;93485;1202;93384;-72
2021/08/25 06:22:23;;;;;;;11.70;6.70;;;;;;;11.95;81.55;100918.91;93508;1202;77223;-66
2021/08/25 06:24:31;;;;;;;10.20;6.40;;;;;;;12.26;81.24;100914.02;93455;1202;83008;-67
2021/08/25 06:26:38;;;;;;;17.80;11.40;;;;;;;12.33;81.22;100910.21;93503;1202;97029;-72
2021/08/25 06:28:46;;;;;;;10.80;7.50;;;;;;;12.59;81.03;100907.48;93484;1202;88410;-72
2021/08/25 06:30:53;;;;;;;12.60;7.90;;;;;;;12.96;80.67;100907.26;93474;1202;94376;-73
2021/08/25 06:33:01;;;;;;;16.60;10.70;;;;;;;13.22;80.32;100906.09;93457;1202;79887;-76
2021/08/25 06:35:11;;;;;;;11.60;6.90;;;;;;;13.28;80.67;100909.08;93529;1202;80627;-78
2021/08/25 06:37:22;;;;;;;11.20;7.30;;;;;;;13.34;80.63;100906.17;93497;1202;97395;-77
2021/08/25 06:39:29;;;;;;;11.30;6.70;;;;;;;13.34;80.72;100902.51;93364;1204;88166;-75
2021/08/25 06:41:37;;;;;;;12.50;7.20;;;;;;;13.69;80.30;100898.57;93507;1202;94290;-73
2021/08/25 06:43:45;;;;;;;11.00;7.00;;;;;;;13.98;80.19;100899.12;93466;1202;78357;-74
2021/08/25 06:45:52;;;;;;;11.20;6.80;;;;;;;14.32;80.13;100901.13;93504;1202;80540;-75
2021/08/25 06:48:05;;;;;;;13.50;7.90;;;;;;;14.67;79.68;100900.21;93484;1202;98241;-73
2021/08/25 06:50:13;;;;;;;13.00;7.70;;;;;;;14.59;79.58;100895.03;93412;1200;87263;-71
2021/08/25 06:52:24;;;;;;;10.90;6.40;;;;;;;14.47;79.46;100892.30;93486;1202;93290;-72
2021/08/25 06:54:34;;;;;;;10.60;7.00;;;;;;;14.61;79.08;100889.14;93457;1202;79533;-74
2021/08/25 06:56:42;;;;;;;11.30;6.70;;;;;;;14.95;78.47;100888.66;93496;1202;80410;-74
2021/08/25 06:58:53;;;;;;;12.00;6.80;;;;;;;14.99;78.28;100886.34;93457;1202;97462;-71
2021/08/25 07:01:04;;;;;;;11.00;6.30;;;;;;;14.74;78.32;100879.79;93513;1202;87782;-72
2021/08/25 07:03:11;;;;;;;9.40;5.80;;;;;;;14.69;78.45;100877.63;93447;1202;94536;-67
2021/08/25 07:05:19;;;;;;;11.60;5.70;;;;;;;15.07;77.76;100877.97;93398;1206;79399;-67
2021/08/25 07:07:26;;;;;;;12.40;5.60;;;;;;;15.44;77.38;100875.63;93470;1202;80576;-73
2021/08/25 07:09:34;;;;;;;9.90;5.80;;;;;;;15.60;77.49;100875.95;93470;1202;97443;-73
2021/08/25 07:11:45;;;;;;;9.70;5.60;;;;;;;15.82;77.33;100872.98;93499;1202;87111;-73
2021/08/25 07:13:52;;;;;;;9.30;5.80;;;;;;;15.88;77.07;100872.39;93465;1202;93893;-72
2021/08/25 07:16:00;;;;;;;9.20;6.00;;;;;;;16.11;76.55;100875.56;93476;1202;77154;-72
2021/08/25 07:18:08;;;;;;;8.40;5.40;;;;;;;16.12;76.46;100871.88;93511;1197;79590;-67
2021/08/25 07:20:17;;;;;;;9.00;5.80;;;;;;;16.15;76.13;100870.58;93492;1202;96553;-66
2021/08/25 07:22:25;;;;;;;13.90;6.00;;;;;;;16.35;76.07;100869.19;93529;1202;88081;-66
2021/08/25 07:24:35;;;;;;;11.60;6.00;;;;;;;16.72;75.29;100864.32;93492;1202;93955;-68
2021/08/25 07:26:43;;;;;;;8.50;5.70;;;;;;;16.85;75.03;100863.37;93479;1202;79223;-67
2021/08/25 07:28:51;;;;;;;8.80;5.80;;;;;;;16.88;75.24;100860.15;93502;1202;81678;-67
2021/08/25 07:30:58;;;;;;;8.50;5.70;;;;;;;17.13;74.70;100859.11;93512;1202;98382;-66
2021/08/25 07:33:11;;;;;;;14.50;5.50;;;;;;;17.29;74.51;100858.80;93520;1202;88290;-72
2021/08/25 07:35:19;;;;;;;9.80;5.70;;;;;;;17.51;74.22;100861.18;93493;1202;94019;-73
2021/08/25 07:37:30;;;;;;;10.10;5.20;;;;;;;17.59;73.93;100858.27;93458;1202;79139;-73
2021/08/25 07:39:41;;;;;;;7.90;5.40;;;;;;;17.81;73.05;100854.83;93495;1202;80750;-73
2021/08/25 07:41:48;;;;;;;10.20;5.80;;;;;;;18.18;72.39;100853.84;93458;1202;98542;-72
2021/08/25 07:43:59;;;;;;;9.30;5.00;;;;;;;18.32;72.04;100853.08;93468;1202;86540;-72
2021/08/25 07:46:07;;;;;;;5.90;4.60;;;;;;;18.43;71.81;100849.97;93489;1203;95282;-70
2021/08/25 07:48:14;;;;;;;8.90;5.10;;;;;;;18.39;71.43;100845.39;93486;1203;80731;-66
2021/08/25 07:50:22;;;;;;;9.30;5.00;;;;;;;18.24;71.54;100842.50;93513;1203;81542;-65
2021/08/25 07:52:30;;;;;;;7.90;4.70;;;;;;;18.24;71.36;100840.97;93481;1202;98812;-67
2021/08/25 07:54:38;;;;;;;7.60;4.60;;;;;;;18.51;70.70;100837.44;93493;1205;86523;-66
2021/08/25 07:56:45;;;;;;;6.90;4.70;;;;;;;18.78;70.48;100835.24;93493;1202;97197;-71
2021/08/25 07:58:56;;;;;;;8.20;5.20;;;;;;;19.59;70.77;100835.27;93487;1202;79584;-71
2021/08/25 08:01:13;;;;;;;8.70;4.20;;;;;;;19.89;69.98;100833.70;93400;1204;81431;-67
2021/08/25 08:03:20;;;;;;;6.70;4.40;;;;;;;20.20;69.29;100823.42;93485;1202;96421;-73
2021/08/25 08:05:31;;;;;;;8.30;5.30;;;;;;;20.33;68.76;100824.15;93525;1202;87298;-72
2021/08/25 08:07:39;;;;;;;7.30;5.40;;;;;;;19.91;68.52;100821.20;93486;1202;94338;-71
2021/08/25 08:09:47;;;;;;;7.30;5.00;;;;;;;20.38;68.64;100821.27;93497;1202;80191;-73
2021/08/25 08:11:57;;;;;;;7.70;4.90;;;;;;;20.30;66.63;100820.33;93502;1202;80549;-75
2021/08/25 08:14:06;;;;;;;6.50;4.70;;;;;;;20.25;67.05;100819.53;93478;1202;99310;-75
2021/08/25 08:16:19;;;;;;;9.20;5.20;;;;;;;20.23;65.45;100819.05;93533;1202;86804;-66
2021/08/25 08:18:34;;;;;;;10.00;4.80;;;;;;;19.78;65.91;100815.52;93473;1202;94035;-67
2021/08/25 08:20:42;;;;;;;8.60;5.00;;;;;;;20.09;65.60;100815.05;93490;1202;78341;-68
2021/08/25 08:22:50;;;;;;;7.20;4.50;;;;;;;20.82;64.86;100809.01;93455;1202;81197;-74
2021/08/25 08:24:58;;;;;;;6.20;5.00;;;;;;;21.40;64.60;100806.56;93519;1202;97433;-74
2021/08/25 08:27:07;;;;;;;7.30;4.70;;;;;;;21.64;64.01;100805.69;93502;1202;87522;-74
2021/08/25 08:29:18;;;;;;;7.90;4.70;;;;;;;21.71;62.97;100806.13;93477;1205;92848;-71
2021/08/25 08:31:35;;;;;;;7.90;4.90;;;;;;;21.86;62.00;100805.14;93480;1202;78498;-71
2021/08/25 08:33:45;;;;;;;7.20;5.70;;;;;;;21.57;61.58;100800.84;93361;1200;82333;-71
2021/08/25 08:35:54;;;;;;;7.50;5.20;;;;;;;20.65;62.31;100803.39;93496;1203;97889;-71
2021/08/25 08:38:02;;;;;;;6.40;5.00;;;;;;;21.22;62.64;100796.14;93451;1202;86653;-67
2021/08/25 08:40:12;;;;;;;9.10;5.40;;;;;;;21.18;61.97;100793.41;93490;1202;93932;-68
2021/08/25 08:42:32;;;;;;;8.80;5.90;;;;;;;21.28;62.00;100789.56;93519;1203;80131;-70
2021/08/25 08:44:42;;;;;;;7.20;4.70;;;;;;;21.85;60.13;100785.95;93481;1202;82196;-69
2021/08/25 08:46:52;;;;;;;9.80;5.00;;;;;;;21.83;59.72;100781.00;93461;1202;97787;-67
2021/08/25 08:48:59;;;;;;;9.00;5.80;;;;;;;22.16;59.48;100776.68;93491;1202;88230;-72
2021/08/25 08:51:09;;;;;;;7.50;5.10;;;;;;;22.34;59.35;100774.15;93393;1203;94043;-71
2021/08/25 08:53:18;;;;;;;6.80;5.40;;;;;;;22.44;59.14;100773.22;93494;1202;79084;-70
2021/08/25 08:55:26;;;;;;;9.00;5.90;;;;;;;22.19;59.25;100768.20;93476;1203;82397;-70
2021/08/25 08:57:34;;;;;;;7.70;5.80;;;;;;;22.04;58.50;100770.41;93512;1200;97682;-72
2021/08/25 08:59:42;;;;;;;7.80;5.40;;;;;;;21.87;58.83;100763.89;93496;1203;87927;-71
2021/08/25 09:01:49;;;;;;;8.50;5.50;;;;;;;21.98;58.06;100757.04;93466;1202;94564;-71
2021/08/25 09:03:57;;;;;;;9.50;5.90;;;;;;;21.93;58.36;100754.86;93501;1202;78905;-71
2021/08/25 09:06:09;;;;;;;7.90;5.70;;;;;;;22.25;57.92;100749.71;93487;1202;83108;-71
2021/08/25 09:08:25;;;;;;;7.70;5.70;;;;;;;22.32;57.23;100749.29;93474;1196;98466;-73
2021/08/25 09:10:36;;;;;;;7.70;5.00;;;;;;;22.13;57.37;100745.93;93474;1202;86897;-72
2021/08/25 09:12:53;;;;;;;10.40;5.60;;;;;;;21.93;57.29;100741.60;93461;1202;93538;-72
2021/08/25 09:15:20;;;;;;;9.80;5.70;;;;;;;21.92;57.63;100739.45;93482;1202;79608;-72
2021/08/25 09:17:32;;;;;;;8.80;5.10;;;;;;;22.10;57.17;100742.48;93342;1203;80976;-72
2021/08/25 09:19:39;;;;;;;7.20;5.10;;;;;;;22.07;56.33;100743.48;93500;1202;96689;-72
2021/08/25 09:21:50;;;;;;;7.10;5.30;;;;;;;22.01;56.09;100744.29;93468;1202;88076;-71
2021/08/25 09:24:01;;;;;;;7.10;5.20;;;;;;;22.29;55.99;100739.86;93482;1202;94159;-71
2021/08/25 09:26:11;;;;;;;9.70;5.20;;;;;;;22.54;56.32;100738.63;93458;1202;77862;-71
2021/08/25 09:28:27;;;;;;;7.30;4.70;;;;;;;22.94;55.16;100733.65;93477;1202;80670;-70
2021/08/25 09:30:59;;;;;;;7.30;5.00;;;;;;;23.27;54.77;100733.98;93455;1202;98181;-72
2021/08/25 09:33:10;;;;;;;6.80;4.60;;;;;;;23.06;55.20;100726.96;93499;1202;88242;-72
2021/08/25 09:35:18;;;;;;;7.20;5.00;;;;;;;22.94;53.26;100724.56;93457;1202;94368;-71
2021/08/25 09:37:27;;;;;;;6.20;4.40;;;;;;;22.73;53.48;100722.98;93456;1202;77709;-72
2021/08/25 09:39:36;;;;;;;5.30;4.10;;;;;;;22.01;52.61;100718.99;93452;1203;81944;-72
2021/08/25 09:41:57;;;;;;;5.90;4.40;;;;;;;20.92;53.49;100716.40;93445;1202;98206;-72
2021/08/25 09:44:19;;;;;;;6.10;4.60;;;;;;;20.79;54.51;100708.19;93452;1202;88812;-72
2021/08/25 09:46:30;;;;;;;8.50;4.90;;;;;;;21.19;54.18;100705.33;93458;1203;92469;-69
2021/08/25 09:48:40;;;;;;;6.20;4.60;;;;;;;21.12;54.49;100706.16;93473;1202;78880;-72
2021/08/25 09:50:58;;;;;;;5.40;3.50;;;;;;;21.01;53.53;100701.35;93512;1202;82501;-74
2021/08/25 09:53:18;;;;;;;6.50;3.90;;;;;;;20.42;53.98;100694.50;93467;1202;98069;-75
2021/08/25 09:55:35;;;;;;;4.40;3.20;;;;;;;20.55;54.14;100687.82;93473;1202;86791;-73
2021/08/25 09:57:44;;;;;;;6.00;3.90;;;;;;;20.62;54.13;100686.29;93482;1203;94959;-74
2021/08/25 09:59:51;;;;;;;7.60;3.90;;;;;;;20.60;54.18;100684.38;93471;1202;78017;-73